createdAt,value
2023-08-14T00:10:35.997Z,23.34
2023-08-14T00:25:37.944Z,23.19
2023-08-14T00:40:40.485Z,23.16
2023-08-14T00:55:43.344Z,23.07
2023-08-14T01:11:18.988Z,23.04
2023-08-14T01:26:21.430Z,22.99
2023-08-14T01:41:56.353Z,22.93
2023-08-14T01:56:58.633Z,22.88
2023-08-14T02:12:01.473Z,22.84
2023-08-14T02:27:03.463Z,22.81
2023-08-14T02:42:05.831Z,22.70
2023-08-14T06:00:06.576Z,24.28
2023-08-14T06:15:09.445Z,23.75
2023-08-14T06:30:12.389Z,23.85
2023-08-14T06:45:14.399Z,23.97
2023-08-14T07:00:16.658Z,24.90
2023-08-14T07:15:18.718Z,26.05
2023-08-14T07:30:20.785Z,26.47
2023-08-14T07:45:22.760Z,25.84
2023-08-14T08:00:24.664Z,26.00
2023-08-14T08:15:27.061Z,25.18
2023-08-14T08:30:29.119Z,24.72
2023-08-14T08:45:37.969Z,25.08
2023-08-14T09:00:40.146Z,25.45
2023-08-14T09:15:45.633Z,25.48
2023-08-14T09:30:47.630Z,26.05
2023-08-14T09:45:49.638Z,26.10
2023-08-14T10:00:52.091Z,26.69
2023-08-14T10:15:57.510Z,26.93
2023-08-14T10:31:01.247Z,27.11
2023-08-14T10:46:09.960Z,26.15
2023-08-14T11:01:13.195Z,26.75
2023-08-14T11:16:15.420Z,26.52
2023-08-14T11:31:21.496Z,27.15
2023-08-14T11:46:29.715Z,26.86
2023-08-14T12:01:37.913Z,26.92
2023-08-14T12:16:41.279Z,27.46
2023-08-14T12:31:43.561Z,27.26
2023-08-14T12:46:46.053Z,27.91
2023-08-14T13:01:48.349Z,28.01
2023-08-14T13:16:50.366Z,28.37
2023-08-14T13:31:52.327Z,27.69
2023-08-14T13:46:54.301Z,28.22
2023-08-14T14:01:56.294Z,28.36
2023-08-14T14:16:59.359Z,28.35
2023-08-14T14:32:01.354Z,28.08
2023-08-14T14:47:03.372Z,28.68
2023-08-14T15:02:11.996Z,28.74
2023-08-14T15:17:14.342Z,28.25
2023-08-14T15:32:16.321Z,27.90
2023-08-14T15:47:18.488Z,27.62
2023-08-14T16:02:22.686Z,27.34
2023-08-14T16:17:24.812Z,27.01
2023-08-14T16:32:26.869Z,26.73
2023-08-14T16:47:29.495Z,26.57
2023-08-14T17:02:31.530Z,26.32
2023-08-14T17:17:33.528Z,26.15
2023-08-14T17:32:35.572Z,25.72
2023-08-14T17:47:37.702Z,25.57
2023-08-14T18:02:39.838Z,25.39
2023-08-14T18:17:41.994Z,25.45
2023-08-14T18:32:44.061Z,25.25
2023-08-14T18:47:46.130Z,25.09
2023-08-14T19:02:48.030Z,25.04
2023-08-14T19:17:50.038Z,24.93
2023-08-14T19:32:52.697Z,24.92
2023-08-14T19:47:55.020Z,24.88
2023-08-14T20:02:57.115Z,24.78
2023-08-14T20:17:59.183Z,24.82
2023-08-14T20:33:01.475Z,24.76
2023-08-14T20:48:04.792Z,24.64
2023-08-14T21:03:07.514Z,24.60
2023-08-14T21:18:09.641Z,24.53
2023-08-14T21:33:11.709Z,24.53
2023-08-14T21:48:13.882Z,24.28
2023-08-14T22:03:15.907Z,24.02
2023-08-14T22:18:17.950Z,23.73
2023-08-14T22:33:19.923Z,23.64
2023-08-14T22:48:21.944Z,23.43
2023-08-14T23:03:23.928Z,23.23
2023-08-14T23:18:25.945Z,23.10
2023-08-14T23:33:27.934Z,23.15
2023-08-14T23:48:29.924Z,23.07
